sensor_id;sensor_type;location;lat;lon;timestamp;P1;durP1;ratioP1;P2;durP2;ratioP2
59685;SDS011;45554;51.096;16.976;2023-09-12T08:21:32;14.30;;;9.10;;
59685;SDS011;45554;51.096;16.976;2023-09-12T08:24:00;13.90;;;9.30;;
59685;SDS011;45554;51.096;16.976;2023-09-12T08:26:28;12.30;;;8.60;;
59685;SDS011;45554;51.096;16.976;2023-09-12T08:28:59;12.00;;;8.40;;
59685;SDS011;45554;51.096;16.976;2023-09-12T08:31:27;14.30;;;9.10;;
59685;SDS011;45554;51.096;16.976;2023-09-12T08:33:55;12.60;;;9.30;;
59685;SDS011;45554;51.096;16.976;2023-09-12T08:36:23;13.40;;;8.30;;
59685;SDS011;45554;51.096;16.976;2023-09-12T08:38:51;13.90;;;9.10;;
59685;SDS011;45554;51.096;16.976;2023-09-12T08:41:19;10.60;;;7.80;;
59685;SDS011;45554;51.096;16.976;2023-09-12T08:43:47;12.20;;;9.20;;
59685;SDS011;45554;51.096;16.976;2023-09-12T08:46:16;11.90;;;9.40;;
59685;SDS011;45554;51.096;16.976;2023-09-12T08:48:45;15.30;;;9.40;;
59685;SDS011;45554;51.096;16.976;2023-09-12T08:51:14;11.40;;;9.20;;
59685;SDS011;45554;51.096;16.976;2023-09-12T08:53:42;12.90;;;9.20;;
59685;SDS011;45554;51.096;16.976;2023-09-12T08:56:11;13.70;;;9.00;;
59685;SDS011;45554;51.096;16.976;2023-09-12T08:58:39;13.60;;;9.80;;
59685;SDS011;45554;51.096;16.976;2023-09-12T09:01:08;12.70;;;10.00;;
59685;SDS011;45554;51.096;16.976;2023-09-12T09:03:41;13.50;;;8.80;;
59685;SDS011;45554;51.096;16.976;2023-09-12T09:06:12;13.10;;;9.10;;
59685;SDS011;45554;51.096;16.976;2023-09-12T09:08:42;11.00;;;8.60;;
59685;SDS011;45554;51.096;16.976;2023-09-12T09:11:12;11.10;;;8.80;;
59685;SDS011;45554;51.096;16.976;2023-09-12T09:13:40;12.10;;;8.90;;
59685;SDS011;45554;51.096;16.976;2023-09-12T09:16:15;11.40;;;8.60;;
59685;SDS011;45554;51.096;16.976;2023-09-12T09:19:00;13.60;;;8.70;;
59685;SDS011;45554;51.096;16.976;2023-09-12T09:21:38;14.00;;;8.40;;
59685;SDS011;45554;51.096;16.976;2023-09-12T09:24:09;13.30;;;8.80;;
59685;SDS011;45554;51.096;16.976;2023-09-12T09:26:44;13.20;;;9.90;;
59685;SDS011;45554;51.096;16.976;2023-09-12T09:29:17;11.80;;;8.90;;
59685;SDS011;45554;51.096;16.976;2023-09-12T09:31:47;13.30;;;8.90;;
59685;SDS011;45554;51.096;16.976;2023-09-12T09:34:18;11.40;;;8.60;;
59685;SDS011;45554;51.096;16.976;2023-09-12T09:36:48;10.70;;;7.90;;
59685;SDS011;45554;51.096;16.976;2023-09-12T09:39:17;11.60;;;8.10;;
59685;SDS011;45554;51.096;16.976;2023-09-12T09:41:47;11.50;;;7.80;;
59685;SDS011;45554;51.096;16.976;2023-09-12T09:44:16;11.10;;;7.60;;
59685;SDS011;45554;51.096;16.976;2023-09-12T09:46:46;10.30;;;7.70;;
59685;SDS011;45554;51.096;16.976;2023-09-12T09:49:20;10.00;;;7.30;;
59685;SDS011;45554;51.096;16.976;2023-09-12T09:51:47;9.80;;;8.30;;
59685;SDS011;45554;51.096;16.976;2023-09-12T09:54:15;14.80;;;7.50;;
59685;SDS011;45554;51.096;16.976;2023-09-12T09:56:50;11.00;;;7.60;;
59685;SDS011;45554;51.096;16.976;2023-09-12T09:59:22;10.90;;;8.30;;
59685;SDS011;45554;51.096;16.976;2023-09-12T10:01:55;10.90;;;7.50;;
59685;SDS011;45554;51.096;16.976;2023-09-12T10:04:33;10.70;;;7.00;;
59685;SDS011;45554;51.096;16.976;2023-09-12T10:07:11;9.90;;;7.50;;
59685;SDS011;45554;51.096;16.976;2023-09-12T10:09:43;11.40;;;7.90;;
59685;SDS011;45554;51.096;16.976;2023-09-12T10:12:12;12.30;;;7.60;;
59685;SDS011;45554;51.096;16.976;2023-09-12T10:14:40;9.30;;;7.30;;
59685;SDS011;45554;51.096;16.976;2023-09-12T10:17:11;11.30;;;7.90;;
59685;SDS011;45554;51.096;16.976;2023-09-12T10:19:43;10.50;;;7.20;;
59685;SDS011;45554;51.096;16.976;2023-09-12T10:22:28;9.00;;;7.30;;
59685;SDS011;45554;51.096;16.976;2023-09-12T10:25:02;9.70;;;7.50;;
59685;SDS011;45554;51.096;16.976;2023-09-12T10:27:30;9.40;;;7.20;;
59685;SDS011;45554;51.096;16.976;2023-09-12T10:30:01;9.10;;;6.80;;
59685;SDS011;45554;51.096;16.976;2023-09-12T10:32:30;9.60;;;7.70;;
59685;SDS011;45554;51.096;16.976;2023-09-12T10:35:00;10.50;;;7.00;;
59685;SDS011;45554;51.096;16.976;2023-09-12T10:37:30;8.80;;;6.50;;
59685;SDS011;45554;51.096;16.976;2023-09-12T10:40:02;9.00;;;6.10;;
59685;SDS011;45554;51.096;16.976;2023-09-12T10:42:35;10.00;;;7.10;;
59685;SDS011;45554;51.096;16.976;2023-09-12T10:45:05;11.40;;;6.50;;
59685;SDS011;45554;51.096;16.976;2023-09-12T10:47:36;10.60;;;6.40;;
59685;SDS011;45554;51.096;16.976;2023-09-12T10:50:04;8.70;;;6.00;;
59685;SDS011;45554;51.096;16.976;2023-09-12T10:52:34;9.50;;;6.70;;
59685;SDS011;45554;51.096;16.976;2023-09-12T10:55:09;10.60;;;6.70;;
59685;SDS011;45554;51.096;16.976;2023-09-12T10:58:05;9.20;;;6.10;;
59685;SDS011;45554;51.096;16.976;2023-09-12T11:00:39;8.90;;;6.20;;
59685;SDS011;45554;51.096;16.976;2023-09-12T11:05:55;10.60;;;6.70;;
59685;SDS011;45554;51.096;16.976;2023-09-12T11:08:23;8.30;;;5.90;;
59685;SDS011;45554;51.096;16.976;2023-09-12T11:14:07;8.10;;;5.80;;
59685;SDS011;45554;51.096;16.976;2023-09-12T11:16:36;9.40;;;5.60;;
59685;SDS011;45554;51.096;16.976;2023-09-12T11:21:46;10.50;;;6.70;;
59685;SDS011;45554;51.096;16.976;2023-09-12T11:24:16;8.30;;;5.90;;
59685;SDS011;45554;51.096;16.976;2023-09-12T11:27:00;9.00;;;6.10;;
59685;SDS011;45554;51.096;16.976;2023-09-12T11:29:37;9.40;;;6.20;;
59685;SDS011;45554;51.096;16.976;2023-09-12T11:32:06;9.00;;;6.10;;
59685;SDS011;45554;51.096;16.976;2023-09-12T11:34:43;9.80;;;5.90;;
59685;SDS011;45554;51.096;16.976;2023-09-12T11:37:22;7.90;;;5.90;;
59685;SDS011;45554;51.096;16.976;2023-09-12T11:39:52;8.60;;;6.10;;
59685;SDS011;45554;51.096;16.976;2023-09-12T11:42:22;9.30;;;6.20;;
59685;SDS011;45554;51.096;16.976;2023-09-12T11:44:53;8.40;;;6.10;;
59685;SDS011;45554;51.096;16.976;2023-09-12T11:47:21;9.70;;;6.30;;
59685;SDS011;45554;51.096;16.976;2023-09-12T11:49:50;8.90;;;6.40;;
59685;SDS011;45554;51.096;16.976;2023-09-12T11:52:18;9.40;;;6.30;;
59685;SDS011;45554;51.096;16.976;2023-09-12T11:54:47;9.20;;;6.00;;
59685;SDS011;45554;51.096;16.976;2023-09-12T11:57:15;9.80;;;6.30;;
59685;SDS011;45554;51.096;16.976;2023-09-12T11:59:44;8.60;;;6.50;;
59685;SDS011;45554;51.096;16.976;2023-09-12T12:02:14;8.30;;;6.20;;
59685;SDS011;45554;51.096;16.976;2023-09-12T12:04:42;9.20;;;6.60;;
59685;SDS011;45554;51.096;16.976;2023-09-12T12:07:13;8.80;;;5.80;;
59685;SDS011;45554;51.096;16.976;2023-09-12T12:12:10;8.70;;;5.50;;
59685;SDS011;45554;51.096;16.976;2023-09-12T12:14:39;8.60;;;6.20;;
59685;SDS011;45554;51.096;16.976;2023-09-12T12:17:09;8.20;;;5.40;;
59685;SDS011;45554;51.096;16.976;2023-09-12T12:19:38;9.60;;;6.40;;
59685;SDS011;45554;51.096;16.976;2023-09-12T12:22:07;7.60;;;5.80;;
59685;SDS011;45554;51.096;16.976;2023-09-12T12:24:38;9.20;;;6.70;;
59685;SDS011;45554;51.096;16.976;2023-09-12T12:27:08;9.40;;;6.10;;
59685;SDS011;45554;51.096;16.976;2023-09-12T12:29:37;9.30;;;6.20;;
59685;SDS011;45554;51.096;16.976;2023-09-12T12:32:14;8.80;;;5.80;;
59685;SDS011;45554;51.096;16.976;2023-09-12T12:34:47;9.90;;;6.30;;
59685;SDS011;45554;51.096;16.976;2023-09-12T12:37:36;9.50;;;5.90;;
59685;SDS011;45554;51.096;16.976;2023-09-12T12:40:06;9.50;;;6.00;;
59685;SDS011;45554;51.096;16.976;2023-09-12T12:42:40;8.90;;;5.60;;
59685;SDS011;45554;51.096;16.976;2023-09-12T12:45:21;7.70;;;5.60;;
59685;SDS011;45554;51.096;16.976;2023-09-12T12:47:57;7.10;;;5.40;;
59685;SDS011;45554;51.096;16.976;2023-09-12T12:50:27;8.50;;;6.50;;
59685;SDS011;45554;51.096;16.976;2023-09-12T12:55:25;7.30;;;5.80;;
59685;SDS011;45554;51.096;16.976;2023-09-12T12:57:53;9.70;;;6.20;;
59685;SDS011;45554;51.096;16.976;2023-09-12T13:02:51;8.80;;;6.30;;
59685;SDS011;45554;51.096;16.976;2023-09-12T13:07:54;8.00;;;5.30;;
59685;SDS011;45554;51.096;16.976;2023-09-12T13:10:26;8.40;;;6.00;;
59685;SDS011;45554;51.096;16.976;2023-09-12T13:12:55;10.50;;;5.90;;
59685;SDS011;45554;51.096;16.976;2023-09-12T13:15:23;7.50;;;5.20;;
59685;SDS011;45554;51.096;16.976;2023-09-12T13:17:53;9.30;;;6.10;;
59685;SDS011;45554;51.096;16.976;2023-09-12T13:20:21;9.70;;;5.90;;
59685;SDS011;45554;51.096;16.976;2023-09-12T13:22:51;11.50;;;6.00;;
59685;SDS011;45554;51.096;16.976;2023-09-12T13:25:24;10.40;;;6.10;;
59685;SDS011;45554;51.096;16.976;2023-09-12T13:27:52;10.00;;;5.70;;
59685;SDS011;45554;51.096;16.976;2023-09-12T13:30:20;11.40;;;6.20;;
59685;SDS011;45554;51.096;16.976;2023-09-12T13:32:49;9.90;;;6.50;;
59685;SDS011;45554;51.096;16.976;2023-09-12T13:35:17;9.40;;;5.80;;
59685;SDS011;45554;51.096;16.976;2023-09-12T13:37:45;11.40;;;6.00;;
59685;SDS011;45554;51.096;16.976;2023-09-12T13:40:12;10.20;;;6.10;;
59685;SDS011;45554;51.096;16.976;2023-09-12T13:42:40;7.90;;;5.80;;
59685;SDS011;45554;51.096;16.976;2023-09-12T13:45:10;8.00;;;5.90;;
59685;SDS011;45554;51.096;16.976;2023-09-12T13:47:38;7.90;;;6.00;;
59685;SDS011;45554;51.096;16.976;2023-09-12T13:50:06;9.70;;;5.90;;
59685;SDS011;45554;51.096;16.976;2023-09-12T13:52:34;8.30;;;6.40;;
59685;SDS011;45554;51.096;16.976;2023-09-12T13:55:02;8.20;;;5.80;;
59685;SDS011;45554;51.096;16.976;2023-09-12T13:57:31;10.30;;;5.90;;
59685;SDS011;45554;51.096;16.976;2023-09-12T14:00:05;9.40;;;5.80;;
59685;SDS011;45554;51.096;16.976;2023-09-12T14:02:35;8.80;;;5.50;;
59685;SDS011;45554;51.096;16.976;2023-09-12T14:05:04;12.10;;;5.70;;
59685;SDS011;45554;51.096;16.976;2023-09-12T14:07:40;9.90;;;5.60;;
59685;SDS011;45554;51.096;16.976;2023-09-12T14:10:09;11.00;;;6.20;;
59685;SDS011;45554;51.096;16.976;2023-09-12T14:12:43;9.40;;;6.00;;
59685;SDS011;45554;51.096;16.976;2023-09-12T14:15:14;9.20;;;6.10;;
59685;SDS011;45554;51.096;16.976;2023-09-12T14:17:42;8.70;;;5.70;;
59685;SDS011;45554;51.096;16.976;2023-09-12T14:20:23;8.40;;;5.80;;
59685;SDS011;45554;51.096;16.976;2023-09-12T14:22:54;9.70;;;6.00;;
59685;SDS011;45554;51.096;16.976;2023-09-12T14:25:24;9.90;;;5.80;;
59685;SDS011;45554;51.096;16.976;2023-09-12T14:27:54;10.30;;;6.30;;
59685;SDS011;45554;51.096;16.976;2023-09-12T14:30:22;8.20;;;5.90;;
59685;SDS011;45554;51.096;16.976;2023-09-12T14:32:50;14.50;;;7.60;;
59685;SDS011;45554;51.096;16.976;2023-09-12T14:35:18;10.60;;;6.70;;
59685;SDS011;45554;51.096;16.976;2023-09-12T14:37:46;12.80;;;5.70;;
59685;SDS011;45554;51.096;16.976;2023-09-12T14:40:15;9.10;;;6.20;;
59685;SDS011;45554;51.096;16.976;2023-09-12T14:42:44;9.70;;;6.10;;
59685;SDS011;45554;51.096;16.976;2023-09-12T14:45:13;10.30;;;6.70;;
59685;SDS011;45554;51.096;16.976;2023-09-12T14:47:41;10.60;;;5.70;;
59685;SDS011;45554;51.096;16.976;2023-09-12T14:50:09;9.70;;;6.00;;
59685;SDS011;45554;51.096;16.976;2023-09-12T14:52:37;9.40;;;5.50;;
59685;SDS011;45554;51.096;16.976;2023-09-12T14:55:06;7.40;;;5.50;;
59685;SDS011;45554;51.096;16.976;2023-09-12T14:57:36;9.70;;;5.90;;
59685;SDS011;45554;51.096;16.976;2023-09-12T15:00:06;10.30;;;5.90;;
59685;SDS011;45554;51.096;16.976;2023-09-12T15:02:34;10.40;;;5.50;;
59685;SDS011;45554;51.096;16.976;2023-09-12T15:05:02;9.10;;;5.80;;
59685;SDS011;45554;51.096;16.976;2023-09-12T15:07:31;8.70;;;5.70;;
59685;SDS011;45554;51.096;16.976;2023-09-12T15:10:01;11.00;;;6.20;;
59685;SDS011;45554;51.096;16.976;2023-09-12T15:12:29;10.00;;;6.50;;
59685;SDS011;45554;51.096;16.976;2023-09-12T15:14:57;9.60;;;6.30;;
59685;SDS011;45554;51.096;16.976;2023-09-12T15:17:25;9.10;;;6.10;;
59685;SDS011;45554;51.096;16.976;2023-09-12T15:19:53;12.00;;;7.20;;
59685;SDS011;45554;51.096;16.976;2023-09-12T15:22:20;9.30;;;6.90;;
59685;SDS011;45554;51.096;16.976;2023-09-12T15:24:48;10.50;;;5.80;;
59685;SDS011;45554;51.096;16.976;2023-09-12T15:27:16;9.00;;;5.80;;
59685;SDS011;45554;51.096;16.976;2023-09-12T15:29:44;9.60;;;6.10;;
59685;SDS011;45554;51.096;16.976;2023-09-12T15:32:12;7.90;;;5.40;;
59685;SDS011;45554;51.096;16.976;2023-09-12T15:34:40;10.50;;;5.70;;
59685;SDS011;45554;51.096;16.976;2023-09-12T15:37:11;8.80;;;5.70;;
59685;SDS011;45554;51.096;16.976;2023-09-12T15:39:43;9.30;;;6.10;;
59685;SDS011;45554;51.096;16.976;2023-09-12T15:42:11;8.40;;;6.10;;
59685;SDS011;45554;51.096;16.976;2023-09-12T15:44:57;10.80;;;5.70;;
59685;SDS011;45554;51.096;16.976;2023-09-12T15:47:31;9.90;;;5.60;;
59685;SDS011;45554;51.096;16.976;2023-09-12T15:50:00;9.70;;;5.80;;
59685;SDS011;45554;51.096;16.976;2023-09-12T15:52:28;8.90;;;5.60;;
59685;SDS011;45554;51.096;16.976;2023-09-12T15:54:56;8.30;;;5.40;;
59685;SDS011;45554;51.096;16.976;2023-09-12T15:57:24;8.40;;;6.00;;
59685;SDS011;45554;51.096;16.976;2023-09-12T15:59:52;9.30;;;5.50;;
59685;SDS011;45554;51.096;16.976;2023-09-12T16:02:20;7.80;;;5.70;;
59685;SDS011;45554;51.096;16.976;2023-09-12T16:04:48;9.30;;;5.50;;
59685;SDS011;45554;51.096;16.976;2023-09-12T16:07:16;9.30;;;5.60;;
59685;SDS011;45554;51.096;16.976;2023-09-12T16:09:45;9.00;;;6.00;;
59685;SDS011;45554;51.096;16.976;2023-09-12T16:12:14;9.50;;;6.20;;
59685;SDS011;45554;51.096;16.976;2023-09-12T16:14:42;9.20;;;5.80;;
59685;SDS011;45554;51.096;16.976;2023-09-12T16:17:10;7.40;;;5.70;;
59685;SDS011;45554;51.096;16.976;2023-09-12T16:22:06;8.30;;;5.90;;
59685;SDS011;45554;51.096;16.976;2023-09-12T16:24:42;12.10;;;6.20;;
59685;SDS011;45554;51.096;16.976;2023-09-12T16:27:10;8.60;;;6.00;;
59685;SDS011;45554;51.096;16.976;2023-09-12T16:29:39;11.10;;;6.60;;
59685;SDS011;45554;51.096;16.976;2023-09-12T16:32:07;9.20;;;6.40;;
59685;SDS011;45554;51.096;16.976;2023-09-12T16:34:35;7.70;;;6.00;;
59685;SDS011;45554;51.096;16.976;2023-09-12T16:37:03;13.30;;;7.20;;
59685;SDS011;45554;51.096;16.976;2023-09-12T16:39:31;12.80;;;7.20;;
59685;SDS011;45554;51.096;16.976;2023-09-12T16:41:59;9.00;;;7.10;;
59685;SDS011;45554;51.096;16.976;2023-09-12T16:44:27;8.30;;;6.20;;
59685;SDS011;45554;51.096;16.976;2023-09-12T16:46:55;10.50;;;6.30;;
59685;SDS011;45554;51.096;16.976;2023-09-12T16:49:23;10.30;;;6.80;;
59685;SDS011;45554;51.096;16.976;2023-09-12T16:51:51;10.00;;;6.50;;
59685;SDS011;45554;51.096;16.976;2023-09-12T16:54:19;11.00;;;6.90;;
59685;SDS011;45554;51.096;16.976;2023-09-12T16:56:47;10.70;;;6.90;;
59685;SDS011;45554;51.096;16.976;2023-09-12T16:59:15;9.30;;;6.90;;
59685;SDS011;45554;51.096;16.976;2023-09-12T17:01:45;12.50;;;7.60;;
59685;SDS011;45554;51.096;16.976;2023-09-12T17:04:13;15.10;;;7.40;;
59685;SDS011;45554;51.096;16.976;2023-09-12T17:06:41;13.20;;;7.40;;
59685;SDS011;45554;51.096;16.976;2023-09-12T17:09:12;12.50;;;7.30;;
59685;SDS011;45554;51.096;16.976;2023-09-12T17:11:40;11.60;;;7.90;;
59685;SDS011;45554;51.096;16.976;2023-09-12T17:16:36;11.80;;;7.10;;
59685;SDS011;45554;51.096;16.976;2023-09-12T17:19:04;13.50;;;7.50;;
59685;SDS011;45554;51.096;16.976;2023-09-12T17:21:32;12.40;;;7.20;;
59685;SDS011;45554;51.096;16.976;2023-09-12T17:23:59;10.80;;;7.70;;
59685;SDS011;45554;51.096;16.976;2023-09-12T17:26:27;14.00;;;7.80;;
59685;SDS011;45554;51.096;16.976;2023-09-12T17:28:56;13.00;;;8.10;;
59685;SDS011;45554;51.096;16.976;2023-09-12T17:31:24;15.70;;;7.80;;
59685;SDS011;45554;51.096;16.976;2023-09-12T17:33:53;11.60;;;7.50;;
59685;SDS011;45554;51.096;16.976;2023-09-12T17:38:49;13.90;;;7.80;;
59685;SDS011;45554;51.096;16.976;2023-09-12T17:41:17;12.10;;;8.30;;
59685;SDS011;45554;51.096;16.976;2023-09-12T17:43:45;14.90;;;8.30;;
59685;SDS011;45554;51.096;16.976;2023-09-12T17:46:13;16.80;;;8.60;;
59685;SDS011;45554;51.096;16.976;2023-09-12T17:51:09;13.70;;;7.90;;
59685;SDS011;45554;51.096;16.976;2023-09-12T17:53:37;10.80;;;8.10;;
59685;SDS011;45554;51.096;16.976;2023-09-12T17:56:06;13.40;;;8.90;;
59685;SDS011;45554;51.096;16.976;2023-09-12T17:58:34;11.80;;;8.00;;
59685;SDS011;45554;51.096;16.976;2023-09-12T18:01:02;14.50;;;8.20;;
59685;SDS011;45554;51.096;16.976;2023-09-12T18:03:33;13.50;;;8.80;;
59685;SDS011;45554;51.096;16.976;2023-09-12T18:08:30;12.70;;;8.40;;
59685;SDS011;45554;51.096;16.976;2023-09-12T18:10:58;14.60;;;8.80;;
59685;SDS011;45554;51.096;16.976;2023-09-12T18:13:46;17.00;;;8.30;;
59685;SDS011;45554;51.096;16.976;2023-09-12T18:16:15;12.60;;;8.50;;
59685;SDS011;45554;51.096;16.976;2023-09-12T18:18:44;13.50;;;8.50;;
59685;SDS011;45554;51.096;16.976;2023-09-12T18:21:12;14.90;;;8.40;;
59685;SDS011;45554;51.096;16.976;2023-09-12T18:23:40;12.30;;;8.40;;
59685;SDS011;45554;51.096;16.976;2023-09-12T18:26:11;14.30;;;8.00;;
59685;SDS011;45554;51.096;16.976;2023-09-12T18:28:41;11.10;;;7.90;;
59685;SDS011;45554;51.096;16.976;2023-09-12T18:31:11;13.20;;;8.40;;
59685;SDS011;45554;51.096;16.976;2023-09-12T18:33:43;12.70;;;7.90;;
59685;SDS011;45554;51.096;16.976;2023-09-12T18:36:13;11.30;;;8.40;;
59685;SDS011;45554;51.096;16.976;2023-09-12T18:41:11;11.60;;;8.20;;
59685;SDS011;45554;51.096;16.976;2023-09-12T18:43:39;13.00;;;9.10;;
59685;SDS011;45554;51.096;16.976;2023-09-12T18:46:07;14.40;;;8.50;;
59685;SDS011;45554;51.096;16.976;2023-09-12T18:48:36;13.00;;;8.30;;
59685;SDS011;45554;51.096;16.976;2023-09-12T18:51:05;18.90;;;9.50;;
59685;SDS011;45554;51.096;16.976;2023-09-12T18:56:02;14.00;;;9.30;;
59685;SDS011;45554;51.096;16.976;2023-09-12T19:00:58;13.40;;;9.20;;
59685;SDS011;45554;51.096;16.976;2023-09-12T19:03:26;17.80;;;9.00;;
59685;SDS011;45554;51.096;16.976;2023-09-12T19:05:54;17.60;;;10.10;;
59685;SDS011;45554;51.096;16.976;2023-09-12T19:08:24;15.30;;;8.70;;
59685;SDS011;45554;51.096;16.976;2023-09-12T19:10:52;15.80;;;9.30;;
59685;SDS011;45554;51.096;16.976;2023-09-12T19:13:20;15.00;;;9.60;;
59685;SDS011;45554;51.096;16.976;2023-09-12T19:15:48;18.00;;;9.40;;
59685;SDS011;45554;51.096;16.976;2023-09-12T19:18:16;15.30;;;10.00;;
59685;SDS011;45554;51.096;16.976;2023-09-12T19:20:45;14.00;;;9.20;;
59685;SDS011;45554;51.096;16.976;2023-09-12T19:23:12;14.50;;;8.70;;
59685;SDS011;45554;51.096;16.976;2023-09-12T19:25:43;13.90;;;9.10;;
59685;SDS011;45554;51.096;16.976;2023-09-12T19:28:15;13.50;;;8.80;;
59685;SDS011;45554;51.096;16.976;2023-09-12T19:30:44;13.40;;;9.50;;
59685;SDS011;45554;51.096;16.976;2023-09-12T19:33:13;15.00;;;9.60;;
59685;SDS011;45554;51.096;16.976;2023-09-12T19:35:41;15.30;;;9.90;;
59685;SDS011;45554;51.096;16.976;2023-09-12T19:38:09;15.40;;;9.90;;
59685;SDS011;45554;51.096;16.976;2023-09-12T19:40:37;15.90;;;10.20;;
59685;SDS011;45554;51.096;16.976;2023-09-12T19:43:07;16.10;;;9.80;;
59685;SDS011;45554;51.096;16.976;2023-09-12T19:45:37;16.30;;;10.10;;
59685;SDS011;45554;51.096;16.976;2023-09-12T19:50:38;13.80;;;9.50;;
59685;SDS011;45554;51.096;16.976;2023-09-12T19:53:06;11.90;;;8.70;;
59685;SDS011;45554;51.096;16.976;2023-09-12T19:55:35;12.20;;;8.60;;
59685;SDS011;45554;51.096;16.976;2023-09-12T19:58:03;13.10;;;9.70;;
59685;SDS011;45554;51.096;16.976;2023-09-12T20:00:31;14.00;;;9.40;;
59685;SDS011;45554;51.096;16.976;2023-09-12T20:02:59;11.90;;;9.10;;
59685;SDS011;45554;51.096;16.976;2023-09-12T20:05:27;13.70;;;9.90;;
59685;SDS011;45554;51.096;16.976;2023-09-12T20:07:55;13.60;;;9.50;;
59685;SDS011;45554;51.096;16.976;2023-09-12T20:10:23;12.70;;;9.60;;
59685;SDS011;45554;51.096;16.976;2023-09-12T20:12:51;13.30;;;10.00;;
59685;SDS011;45554;51.096;16.976;2023-09-12T20:15:19;15.20;;;10.30;;
59685;SDS011;45554;51.096;16.976;2023-09-12T20:17:48;13.70;;;9.80;;
59685;SDS011;45554;51.096;16.976;2023-09-12T20:20:19;11.60;;;9.60;;
59685;SDS011;45554;51.096;16.976;2023-09-12T20:22:49;13.30;;;10.00;;
59685;SDS011;45554;51.096;16.976;2023-09-12T20:25:17;13.70;;;10.50;;
59685;SDS011;45554;51.096;16.976;2023-09-12T20:27:47;14.00;;;9.90;;
59685;SDS011;45554;51.096;16.976;2023-09-12T20:30:15;16.20;;;10.50;;
59685;SDS011;45554;51.096;16.976;2023-09-12T20:32:43;13.90;;;9.60;;
59685;SDS011;45554;51.096;16.976;2023-09-12T20:35:28;12.50;;;9.50;;
59685;SDS011;45554;51.096;16.976;2023-09-12T20:38:01;14.00;;;11.00;;
59685;SDS011;45554;51.096;16.976;2023-09-12T20:40:31;14.00;;;11.10;;
59685;SDS011;45554;51.096;16.976;2023-09-12T20:42:59;14.30;;;10.60;;
59685;SDS011;45554;51.096;16.976;2023-09-12T20:45:27;16.10;;;11.70;;
59685;SDS011;45554;51.096;16.976;2023-09-12T20:47:55;13.70;;;11.70;;
59685;SDS011;45554;51.096;16.976;2023-09-12T20:50:23;14.40;;;11.50;;
59685;SDS011;45554;51.096;16.976;2023-09-12T20:53:01;14.70;;;11.30;;
59685;SDS011;45554;51.096;16.976;2023-09-12T20:55:37;16.30;;;11.20;;
59685;SDS011;45554;51.096;16.976;2023-09-12T20:58:05;16.80;;;11.40;;
59685;SDS011;45554;51.096;16.976;2023-09-12T21:00:33;16.50;;;11.10;;
59685;SDS011;45554;51.096;16.976;2023-09-12T21:03:02;13.70;;;10.70;;
59685;SDS011;45554;51.096;16.976;2023-09-12T21:05:31;14.40;;;10.90;;
59685;SDS011;45554;51.096;16.976;2023-09-12T21:08:00;13.20;;;11.10;;
59685;SDS011;45554;51.096;16.976;2023-09-12T21:10:28;15.70;;;11.60;;
59685;SDS011;45554;51.096;16.976;2023-09-12T21:12:56;14.40;;;11.20;;
59685;SDS011;45554;51.096;16.976;2023-09-12T21:15:24;14.00;;;11.50;;
59685;SDS011;45554;51.096;16.976;2023-09-12T21:17:53;14.70;;;11.70;;
59685;SDS011;45554;51.096;16.976;2023-09-12T21:20:21;14.50;;;12.00;;
59685;SDS011;45554;51.096;16.976;2023-09-12T21:22:49;14.80;;;11.20;;
59685;SDS011;45554;51.096;16.976;2023-09-12T21:25:17;17.10;;;12.00;;
59685;SDS011;45554;51.096;16.976;2023-09-12T21:27:45;16.00;;;11.40;;
59685;SDS011;45554;51.096;16.976;2023-09-12T21:30:13;14.90;;;11.30;;
59685;SDS011;45554;51.096;16.976;2023-09-12T21:32:40;14.50;;;11.10;;
59685;SDS011;45554;51.096;16.976;2023-09-12T21:35:16;15.90;;;12.40;;
59685;SDS011;45554;51.096;16.976;2023-09-12T21:37:47;16.20;;;11.70;;
59685;SDS011;45554;51.096;16.976;2023-09-12T21:40:15;16.50;;;12.50;;
59685;SDS011;45554;51.096;16.976;2023-09-12T21:45:11;16.40;;;12.20;;
59685;SDS011;45554;51.096;16.976;2023-09-12T21:47:41;16.80;;;12.40;;
59685;SDS011;45554;51.096;16.976;2023-09-12T21:50:10;14.60;;;12.20;;
59685;SDS011;45554;51.096;16.976;2023-09-12T21:52:39;18.80;;;12.30;;
59685;SDS011;45554;51.096;16.976;2023-09-12T21:55:07;15.70;;;12.40;;
59685;SDS011;45554;51.096;16.976;2023-09-12T22:00:04;16.60;;;12.20;;
59685;SDS011;45554;51.096;16.976;2023-09-12T22:02:54;14.70;;;13.10;;
59685;SDS011;45554;51.096;16.976;2023-09-12T22:05:23;16.80;;;12.10;;
59685;SDS011;45554;51.096;16.976;2023-09-12T22:07:52;15.70;;;12.60;;
59685;SDS011;45554;51.096;16.976;2023-09-12T22:10:20;17.00;;;12.80;;
59685;SDS011;45554;51.096;16.976;2023-09-12T22:12:48;15.30;;;12.50;;
59685;SDS011;45554;51.096;16.976;2023-09-12T22:15:16;16.50;;;13.00;;
59685;SDS011;45554;51.096;16.976;2023-09-12T22:17:44;17.30;;;12.80;;
59685;SDS011;45554;51.096;16.976;2023-09-12T22:20:13;15.90;;;13.00;;
59685;SDS011;45554;51.096;16.976;2023-09-12T22:22:44;18.60;;;13.70;;
59685;SDS011;45554;51.096;16.976;2023-09-12T22:25:14;16.80;;;13.30;;
59685;SDS011;45554;51.096;16.976;2023-09-12T22:27:42;16.60;;;12.80;;
59685;SDS011;45554;51.096;16.976;2023-09-12T22:32:39;17.50;;;13.50;;
59685;SDS011;45554;51.096;16.976;2023-09-12T22:35:07;20.90;;;13.40;;
59685;SDS011;45554;51.096;16.976;2023-09-12T22:37:35;17.40;;;13.40;;
59685;SDS011;45554;51.096;16.976;2023-09-12T22:40:03;19.10;;;13.80;;
59685;SDS011;45554;51.096;16.976;2023-09-12T22:42:34;16.00;;;13.00;;
59685;SDS011;45554;51.096;16.976;2023-09-12T22:45:02;17.90;;;13.50;;
59685;SDS011;45554;51.096;16.976;2023-09-12T22:47:31;17.40;;;13.00;;
59685;SDS011;45554;51.096;16.976;2023-09-12T22:50:01;18.70;;;13.40;;
59685;SDS011;45554;51.096;16.976;2023-09-12T22:52:33;17.10;;;13.50;;
59685;SDS011;45554;51.096;16.976;2023-09-12T22:55:02;17.40;;;13.30;;
59685;SDS011;45554;51.096;16.976;2023-09-12T22:57:32;18.20;;;13.90;;
59685;SDS011;45554;51.096;16.976;2023-09-12T23:00:00;17.60;;;14.30;;
59685;SDS011;45554;51.096;16.976;2023-09-12T23:02:28;18.30;;;14.50;;
59685;SDS011;45554;51.096;16.976;2023-09-12T23:04:56;19.40;;;13.70;;
59685;SDS011;45554;51.096;16.976;2023-09-12T23:07:24;17.70;;;14.00;;
59685;SDS011;45554;51.096;16.976;2023-09-12T23:09:54;15.50;;;13.70;;
59685;SDS011;45554;51.096;16.976;2023-09-12T23:12:22;18.20;;;14.30;;
59685;SDS011;45554;51.096;16.976;2023-09-12T23:14:50;16.80;;;13.50;;
59685;SDS011;45554;51.096;16.976;2023-09-12T23:17:22;16.20;;;14.00;;
59685;SDS011;45554;51.096;16.976;2023-09-12T23:19:50;18.10;;;14.30;;
59685;SDS011;45554;51.096;16.976;2023-09-12T23:22:20;17.70;;;13.70;;
59685;SDS011;45554;51.096;16.976;2023-09-12T23:24:48;19.30;;;14.30;;
59685;SDS011;45554;51.096;16.976;2023-09-12T23:27:16;18.60;;;14.50;;
59685;SDS011;45554;51.096;16.976;2023-09-12T23:29:44;20.70;;;15.60;;
59685;SDS011;45554;51.096;16.976;2023-09-12T23:32:12;15.60;;;13.00;;
59685;SDS011;45554;51.096;16.976;2023-09-12T23:34:40;16.60;;;13.40;;
59685;SDS011;45554;51.096;16.976;2023-09-12T23:37:08;17.90;;;15.10;;
59685;SDS011;45554;51.096;16.976;2023-09-12T23:39:36;17.70;;;14.90;;
59685;SDS011;45554;51.096;16.976;2023-09-12T23:42:04;19.50;;;14.40;;
59685;SDS011;45554;51.096;16.976;2023-09-12T23:44:32;18.90;;;15.40;;
59685;SDS011;45554;51.096;16.976;2023-09-12T23:47:02;17.80;;;14.50;;